Time;durP1;ratioP1;P1;durP2;ratioP2;P2;SDS_P1;SDS_P2;PMS_P1;PMS_P2;Temp;Humidity;BMP_temperature;BMP_pressure;BME280_temperature;BME280_humidity;BME280_pressure;Samples;Min_cycle;Max_cycle;Signal;HPM_P1;HPM_P2
2022/10/05 00:02:18;;;;;;;1.83;1.60;;;6.60;99.90;;;;;;5044297;28;20593;-76
2022/10/05 00:04:48;;;;;;;3.90;2.50;;;6.50;99.90;;;;;;5039490;28;20462;-76
2022/10/05 00:07:16;;;;;;;6.00;2.23;;;6.40;99.90;;;;;;5050699;28;20548;-76
2022/10/05 00:09:46;;;;;;;3.10;2.80;;;6.40;99.90;;;;;;5043695;28;20577;-76
2022/10/05 00:12:15;;;;;;;2.13;1.93;;;6.40;99.90;;;;;;5045223;28;20491;-76
2022/10/05 00:14:42;;;;;;;3.53;2.23;;;6.40;99.90;;;;;;5042891;28;20499;-76
2022/10/05 00:17:16;;;;;;;3.97;2.43;;;6.40;99.90;;;;;;5046796;28;20494;-76
2022/10/05 00:19:45;;;;;;;2.73;2.53;;;6.50;99.90;;;;;;5042771;28;20537;-76
2022/10/05 00:22:16;;;;;;;2.60;2.13;;;6.50;99.90;;;;;;5047194;28;20462;-76
2022/10/05 00:24:44;;;;;;;3.83;2.07;;;6.50;99.90;;;;;;5043350;28;20464;-76
2022/10/05 00:27:17;;;;;;;3.63;2.40;;;6.40;99.90;;;;;;5043552;28;21267;-76
2022/10/05 00:29:46;;;;;;;3.10;2.80;;;6.50;99.90;;;;;;5043444;28;20984;-76
2022/10/05 00:32:13;;;;;;;2.67;2.43;;;6.40;99.90;;;;;;5052069;28;20826;-76
2022/10/05 00:34:41;;;;;;;2.90;2.70;;;6.50;99.90;;;;;;5043128;28;20491;-76
2022/10/05 00:37:08;;;;;;;3.20;2.50;;;6.40;99.90;;;;;;5042468;28;20532;-76
2022/10/05 00:39:38;;;;;;;3.00;2.70;;;6.40;99.90;;;;;;5048225;28;21332;-76
2022/10/05 00:42:25;;;;;;;4.20;2.13;;;6.40;99.90;;;;;;5053415;28;20548;-76
2022/10/05 00:44:56;;;;;;;3.03;2.83;;;6.40;99.90;;;;;;5043938;28;20616;-76
2022/10/05 00:47:41;;;;;;;9.70;2.40;;;6.50;99.90;;;;;;5044572;28;20547;-76
2022/10/05 00:50:38;;;;;;;5.83;2.53;;;6.40;99.90;;;;;;5042879;28;20611;-76
2022/10/05 00:53:16;;;;;;;2.77;2.40;;;6.30;99.90;;;;;;5040965;28;20482;-76
2022/10/05 00:55:54;;;;;;;3.20;2.63;;;6.30;99.90;;;;;;5045587;28;20463;-76
2022/10/05 00:58:28;;;;;;;2.93;2.73;;;6.20;99.90;;;;;;5042322;28;20531;-76
2022/10/05 01:01:04;;;;;;;2.77;2.23;;;6.20;99.90;;;;;;5041156;28;20936;-76
2022/10/05 01:03:44;;;;;;;4.70;3.27;;;6.10;99.90;;;;;;5043063;28;20532;-76
2022/10/05 01:06:22;;;;;;;3.57;3.23;;;6.00;99.90;;;;;;5044044;28;20555;-76
2022/10/05 01:08:57;;;;;;;2.93;2.63;;;6.00;99.90;;;;;;5049566;28;20464;-76
2022/10/05 01:11:30;;;;;;;2.83;2.17;;;6.00;99.90;;;;;;5043761;28;21292;-76
2022/10/05 01:14:05;;;;;;;3.80;3.17;;;5.90;99.90;;;;;;5042206;28;21041;-77
2022/10/05 01:16:39;;;;;;;3.67;2.53;;;6.00;99.90;;;;;;5047230;28;20550;-76
2022/10/05 01:19:16;;;;;;;3.80;2.63;;;6.00;99.90;;;;;;5040533;28;20457;-76
2022/10/05 01:21:52;;;;;;;5.73;2.60;;;5.90;99.90;;;;;;5061379;28;20564;-76
2022/10/05 01:24:35;;;;;;;3.00;2.80;;;5.90;99.90;;;;;;5060704;28;20922;-76
2022/10/05 01:27:15;;;;;;;3.70;2.27;;;5.90;99.90;;;;;;5055713;28;20553;-76
2022/10/05 01:29:49;;;;;;;4.67;2.67;;;5.90;99.90;;;;;;5062221;28;20979;-76
2022/10/05 01:32:23;;;;;;;2.47;2.27;;;5.80;99.90;;;;;;5060830;28;20503;-76
2022/10/05 01:34:57;;;;;;;3.27;3.07;;;5.80;99.90;;;;;;5059153;28;20462;-76
2022/10/05 01:37:30;;;;;;;2.77;2.20;;;5.70;99.90;;;;;;5058466;28;20466;-76
2022/10/05 01:40:05;;;;;;;4.17;3.53;;;5.80;99.90;;;;;;5041191;28;20499;-76
2022/10/05 01:42:43;;;;;;;3.97;3.57;;;5.70;99.90;;;;;;5054786;28;20857;-76
2022/10/05 01:45:17;;;;;;;3.30;3.00;;;5.70;99.90;;;;;;5061160;28;20457;-76
2022/10/05 01:47:47;;;;;;;4.00;2.83;;;5.70;99.90;;;;;;5039676;28;20527;-76
2022/10/05 01:50:28;;;;;;;3.93;3.10;;;5.70;99.90;;;;;;5040416;28;20601;-76
2022/10/05 01:53:05;;;;;;;4.50;2.87;;;5.60;99.90;;;;;;5041859;28;20527;-77
2022/10/05 01:55:41;;;;;;;3.00;2.63;;;5.60;99.90;;;;;;5045472;28;20521;-77
2022/10/05 01:58:16;;;;;;;3.90;3.00;;;5.60;99.90;;;;;;5043549;28;20490;-77
2022/10/05 02:00:52;;;;;;;4.27;2.60;;;5.50;99.90;;;;;;5044797;28;20518;-76
2022/10/05 02:03:23;;;;;;;3.27;2.57;;;5.60;99.90;;;;;;5047200;28;20610;-78
2022/10/05 02:05:54;;;;;;;5.60;3.80;;;5.60;99.90;;;;;;5044465;28;21038;-79
2022/10/05 02:08:27;;;;;;;4.37;2.60;;;5.70;99.90;;;;;;5052461;28;20464;-78
2022/10/05 02:11:00;;;;;;;3.00;2.10;;;5.60;99.90;;;;;;5044379;28;20616;-79
2022/10/05 02:13:33;;;;;;;2.07;1.97;;;5.70;99.90;;;;;;5043743;28;20559;-79
2022/10/05 02:16:07;;;;;;;3.90;2.03;;;5.60;99.90;;;;;;5045896;28;21093;-79
2022/10/05 02:18:38;;;;;;;3.03;2.10;;;5.60;99.90;;;;;;5047661;28;20569;-78
2022/10/05 02:21:06;;;;;;;4.30;2.20;;;5.60;99.90;;;;;;5041499;28;22301;-79
2022/10/05 02:23:39;;;;;;;3.47;2.23;;;5.60;99.90;;;;;;5045678;28;20500;-79
2022/10/05 02:26:08;;;;;;;2.73;1.90;;;5.60;99.90;;;;;;5049001;28;20543;-78
2022/10/05 02:28:42;;;;;;;3.90;2.30;;;5.50;99.90;;;;;;5045245;28;20530;-79
2022/10/05 02:31:12;;;;;;;3.00;2.23;;;5.50;99.90;;;;;;5054185;28;20512;-78
2022/10/05 02:33:40;;;;;;;4.10;2.10;;;5.50;99.90;;;;;;5064677;28;20555;-78
2022/10/05 02:36:14;;;;;;;2.27;1.40;;;5.50;99.90;;;;;;5062282;28;21027;-78
2022/10/05 02:38:55;;;;;;;1.87;1.63;;;5.50;99.90;;;;;;5066289;28;20469;-78
2022/10/05 02:41:35;;;;;;;2.77;1.83;;;5.50;99.90;;;;;;5063555;28;20473;-78
2022/10/05 02:44:12;;;;;;;1.70;1.60;;;5.50;99.90;;;;;;5067157;28;20489;-78
2022/10/05 02:46:45;;;;;;;2.20;2.00;;;5.60;99.90;;;;;;5081184;28;20456;-78
2022/10/05 02:49:22;;;;;;;2.37;2.03;;;5.60;99.90;;;;;;5065060;28;20491;-78
2022/10/05 02:51:58;;;;;;;1.90;1.77;;;5.60;99.90;;;;;;5064283;28;20558;-78
2022/10/05 02:54:43;;;;;;;4.40;2.67;;;5.50;99.90;;;;;;5060090;28;20487;-78
2022/10/05 02:57:20;;;;;;;2.10;1.90;;;5.60;99.90;;;;;;5059607;28;20947;-79
2022/10/05 02:59:54;;;;;;;28.07;6.30;;;5.70;99.90;;;;;;5065141;28;20516;-78
2022/10/05 03:02:26;;;;;;;52.63;13.60;;;5.80;99.90;;;;;;5058053;28;20944;-78
2022/10/05 03:05:02;;;;;;;88.23;18.07;;;5.90;99.90;;;;;;5044468;28;20564;-78
2022/10/05 03:07:32;;;;;;;165.17;30.93;;;6.00;99.90;;;;;;5053980;28;20836;-79
2022/10/05 03:10:06;;;;;;;62.47;17.23;;;6.20;99.90;;;;;;5045432;28;20468;-78
2022/10/05 03:12:49;;;;;;;99.63;14.83;;;6.20;99.90;;;;;;5044932;28;20541;-78
2022/10/05 03:15:32;;;;;;;39.90;11.63;;;6.10;99.90;;;;;;5041882;28;20473;-78
2022/10/05 03:18:10;;;;;;;75.67;12.37;;;6.10;99.90;;;;;;5042141;28;21063;-78
2022/10/05 03:20:46;;;;;;;38.70;6.10;;;6.10;99.90;;;;;;5055450;28;20481;-78
2022/10/05 03:23:20;;;;;;;45.87;9.17;;;6.10;99.90;;;;;;5059692;28;21288;-78
2022/10/05 03:26:07;;;;;;;35.13;5.60;;;6.10;99.90;;;;;;5063162;28;20461;-78
2022/10/05 03:28:43;;;;;;;38.13;9.70;;;6.20;99.90;;;;;;5064534;28;20552;-78
2022/10/05 03:31:18;;;;;;;58.70;9.80;;;6.20;99.90;;;;;;5062962;28;20485;-78
2022/10/05 03:33:53;;;;;;;19.20;6.07;;;6.20;99.90;;;;;;5062372;28;21001;-78
2022/10/05 03:36:27;;;;;;;21.77;4.00;;;6.20;99.90;;;;;;5065152;28;20464;-78
2022/10/05 03:39:00;;;;;;;18.33;3.20;;;6.10;99.90;;;;;;5043152;28;20561;-78
2022/10/05 03:41:36;;;;;;;29.20;7.70;;;6.10;99.90;;;;;;5042697;28;20536;-78
2022/10/05 03:44:25;;;;;;;30.97;7.70;;;6.10;99.90;;;;;;5040264;28;20570;-78
2022/10/05 03:47:01;;;;;;;33.07;7.30;;;6.20;99.90;;;;;;5041284;28;20498;-78
2022/10/05 03:49:39;;;;;;;41.53;8.93;;;6.30;99.90;;;;;;5047211;28;20554;-78
2022/10/05 03:52:12;;;;;;;25.50;4.60;;;6.30;99.90;;;;;;5042990;28;20518;-78
2022/10/05 03:54:44;;;;;;;32.83;6.00;;;6.10;99.90;;;;;;5041936;28;21467;-78
2022/10/05 03:57:14;;;;;;;17.47;5.37;;;6.10;99.90;;;;;;5043962;28;20608;-78
2022/10/05 03:59:49;;;;;;;22.20;4.00;;;6.10;99.90;;;;;;5042101;28;21206;-78
2022/10/05 04:02:24;;;;;;;71.87;8.00;;;6.10;99.90;;;;;;5047546;28;20553;-78
2022/10/05 04:04:56;;;;;;;26.97;4.57;;;6.10;99.90;;;;;;5044277;28;20568;-78
2022/10/05 04:07:32;;;;;;;17.83;7.43;;;6.10;99.90;;;;;;5052261;28;20798;-78
2022/10/05 04:10:02;;;;;;;16.03;4.87;;;6.10;99.90;;;;;;5040195;28;20487;-78
2022/10/05 04:12:35;;;;;;;12.00;4.77;;;6.10;99.90;;;;;;5044465;28;20486;-78
2022/10/05 04:15:09;;;;;;;12.53;6.33;;;6.00;99.90;;;;;;5038951;28;20499;-78
2022/10/05 04:17:42;;;;;;;15.87;4.70;;;5.90;99.90;;;;;;5048801;28;20506;-78
2022/10/05 04:20:19;;;;;;;12.23;3.23;;;5.90;99.90;;;;;;5043381;28;20529;-78
2022/10/05 04:22:55;;;;;;;3.30;2.47;;;6.00;99.90;;;;;;5044003;28;21070;-78
2022/10/05 04:25:27;;;;;;;8.47;4.60;;;5.90;99.90;;;;;;5043162;28;20488;-78
2022/10/05 04:28:05;;;;;;;20.97;8.50;;;5.80;99.90;;;;;;5041151;28;20600;-78
2022/10/05 04:30:34;;;;;;;30.27;10.73;;;5.90;99.90;;;;;;5043664;28;20492;-78
2022/10/05 04:33:01;;;;;;;4.20;3.23;;;5.80;99.90;;;;;;5041439;28;20537;-78
2022/10/05 04:35:55;;;;;;;4.53;2.43;;;5.70;99.90;;;;;;5043353;28;20531;-78
2022/10/05 04:38:44;;;;;;;2.03;1.80;;;5.70;99.90;;;;;;5034479;28;20558;-78
2022/10/05 04:41:30;;;;;;;11.87;3.00;;;5.50;99.90;;;;;;5039855;28;20561;-78
2022/10/05 04:44:13;;;;;;;13.43;2.30;;;5.40;99.90;;;;;;5037293;28;20480;-78
2022/10/05 04:46:55;;;;;;;2.77;2.03;;;5.30;99.90;;;;;;5038273;28;21949;-78
2022/10/05 04:49:45;;;;;;;1.73;1.63;;;5.20;99.90;;;;;;5044738;28;20474;-78
2022/10/05 04:52:23;;;;;;;2.63;2.50;;;5.10;99.90;;;;;;5046170;28;20522;-78
2022/10/05 04:55:03;;;;;;;2.20;1.87;;;5.00;99.90;;;;;;5050635;28;20777;-78
2022/10/05 04:57:40;;;;;;;2.50;2.30;;;5.10;99.90;;;;;;5044955;28;20463;-78
2022/10/05 05:00:21;;;;;;;4.07;3.73;;;5.10;99.90;;;;;;5055521;28;20551;-78
2022/10/05 05:03:03;;;;;;;5.07;4.33;;;5.10;99.90;;;;;;5056919;28;20465;-78
2022/10/05 05:05:40;;;;;;;3.20;2.73;;;5.10;99.90;;;;;;5044857;28;20913;-78
2022/10/05 05:08:21;;;;;;;2.50;2.10;;;5.10;99.90;;;;;;5052645;28;20489;-77
2022/10/05 05:11:09;;;;;;;2.90;2.50;;;5.00;99.90;;;;;;5042913;28;20589;-78
2022/10/05 05:13:58;;;;;;;2.70;2.50;;;4.90;99.90;;;;;;5048455;28;21172;-77
2022/10/05 05:16:33;;;;;;;10.23;5.00;;;4.90;99.90;;;;;;5045081;28;20502;-77
2022/10/05 05:19:18;;;;;;;12.57;3.30;;;4.90;99.90;;;;;;5040340;28;20504;-77
2022/10/05 05:21:52;;;;;;;10.13;3.60;;;4.90;99.90;;;;;;5051760;28;20925;-77
2022/10/05 05:24:30;;;;;;;5.63;2.83;;;5.00;99.90;;;;;;5061587;28;20466;-77
2022/10/05 05:27:17;;;;;;;5.13;2.17;;;5.00;99.90;;;;;;5059708;28;20511;-77
2022/10/05 05:29:54;;;;;;;4.27;1.90;;;5.10;99.90;;;;;;5063140;28;20436;-78
2022/10/05 05:32:35;;;;;;;3.63;3.40;;;5.30;99.90;;;;;;5058181;28;20593;-78
2022/10/05 05:35:17;;;;;;;5.27;2.50;;;5.30;99.90;;;;;;5057412;28;20533;-78
2022/10/05 05:37:54;;;;;;;2.20;2.10;;;5.30;99.90;;;;;;5049915;28;20499;-77
2022/10/05 05:40:27;;;;;;;5.17;2.20;;;5.40;99.90;;;;;;5037324;28;21527;-77
2022/10/05 05:43:00;;;;;;;7.13;6.43;;;5.60;99.90;;;;;;5044678;28;20518;-78
2022/10/05 05:45:39;;;;;;;5.80;3.60;;;5.90;99.90;;;;;;5040162;28;21212;-78
2022/10/05 05:48:16;;;;;;;8.43;6.33;;;6.10;99.90;;;;;;5040970;28;21027;-78
2022/10/05 05:50:51;;;;;;;5.53;5.03;;;6.10;99.90;;;;;;5040051;28;20471;-78
2022/10/05 05:53:23;;;;;;;3.80;3.50;;;6.10;99.90;;;;;;5040422;28;20597;-77
2022/10/05 05:55:59;;;;;;;6.17;4.03;;;6.10;99.90;;;;;;5046038;28;20934;-78
2022/10/05 05:58:33;;;;;;;10.57;6.87;;;6.20;99.90;;;;;;5044820;28;21186;-78
2022/10/05 06:01:06;;;;;;;5.20;4.40;;;6.30;99.90;;;;;;5041711;28;20500;-78
2022/10/05 06:03:38;;;;;;;6.80;4.13;;;6.50;99.90;;;;;;5053720;28;20489;-77
2022/10/05 06:06:09;;;;;;;6.43;5.60;;;6.60;99.90;;;;;;5056316;28;20551;-77
2022/10/05 06:08:41;;;;;;;9.20;5.83;;;6.60;99.90;;;;;;5057593;28;20463;-77
2022/10/05 06:11:17;;;;;;;9.60;4.80;;;6.70;99.90;;;;;;5061490;28;20501;-77
2022/10/05 06:13:45;;;;;;;6.77;3.80;;;6.70;99.90;;;;;;5063380;28;20521;-77
2022/10/05 06:16:20;;;;;;;4.00;3.17;;;6.80;99.90;;;;;;5059957;28;20451;-78
2022/10/05 06:18:52;;;;;;;7.47;4.43;;;6.80;99.90;;;;;;5054059;28;20930;-77
2022/10/05 06:21:26;;;;;;;5.83;4.40;;;7.00;99.90;;;;;;5062388;28;20558;-77
2022/10/05 06:24:00;;;;;;;4.40;3.07;;;7.10;99.90;;;;;;5058768;28;20556;-77
2022/10/05 06:26:45;;;;;;;4.23;3.63;;;7.20;99.90;;;;;;5045915;28;20463;-78
2022/10/05 06:29:17;;;;;;;4.23;3.50;;;7.30;99.90;;;;;;5055698;28;20467;-78
2022/10/05 06:32:02;;;;;;;4.63;2.93;;;7.40;99.90;;;;;;5057259;28;20480;-78
2022/10/05 06:34:50;;;;;;;5.17;3.90;;;7.30;99.90;;;;;;5060906;28;20457;-77
2022/10/05 06:37:25;;;;;;;3.83;3.10;;;7.40;99.90;;;;;;5052288;28;20467;-77
2022/10/05 06:40:11;;;;;;;3.47;2.83;;;7.50;99.90;;;;;;5065681;28;20449;-80
2022/10/05 06:43:11;;;;;;;7.13;2.40;;;7.60;99.90;;;;;;5057703;28;20927;-80
2022/10/05 06:45:53;;;;;;;6.43;4.50;;;7.60;99.90;;;;;;5034564;28;20950;-79
2022/10/05 06:48:31;;;;;;;6.83;3.80;;;7.80;99.90;;;;;;5060942;28;20512;-79
2022/10/05 06:51:04;;;;;;;4.43;3.83;;;8.00;99.90;;;;;;5059774;28;21048;-79
2022/10/05 06:53:34;;;;;;;3.33;3.03;;;8.20;99.90;;;;;;5059754;28;20511;-79
2022/10/05 06:56:09;;;;;;;3.13;2.63;;;8.30;99.90;;;;;;5059687;28;20485;-79
2022/10/05 06:58:50;;;;;;;2.47;2.27;;;8.50;99.90;;;;;;5059801;28;20468;-79
2022/10/05 07:01:35;;;;;;;4.23;2.50;;;8.60;99.90;;;;;;5069573;28;21189;-80
2022/10/05 07:04:16;;;;;;;2.63;2.47;;;8.70;99.90;;;;;;5060273;28;21168;-80
2022/10/05 07:06:49;;;;;;;3.73;2.23;;;8.90;99.90;;;;;;5064667;28;20500;-79
2022/10/05 07:09:26;;;;;;;4.70;2.63;;;9.00;99.90;;;;;;5058770;28;20494;-79
2022/10/05 07:12:06;;;;;;;2.17;1.97;;;8.90;99.90;;;;;;5063948;28;21171;-79
2022/10/05 07:14:50;;;;;;;2.43;1.87;;;8.90;99.90;;;;;;5057623;28;20521;-79
2022/10/05 07:17:34;;;;;;;6.07;4.20;;;9.00;99.90;;;;;;5065991;28;20497;-78
2022/10/05 07:20:12;;;;;;;8.80;6.60;;;9.10;99.90;;;;;;5054832;28;20496;-79
2022/10/05 07:22:53;;;;;;;5.27;3.27;;;9.10;99.90;;;;;;5060826;28;20462;-76
2022/10/05 07:25:23;;;;;;;6.90;3.50;;;9.10;99.90;;;;;;5057961;28;20535;-76
2022/10/05 07:27:56;;;;;;;7.10;5.97;;;9.20;99.90;;;;;;5063659;28;20504;-76
2022/10/05 07:30:24;;;;;;;3.30;3.00;;;9.20;99.90;;;;;;5062347;28;20643;-76
2022/10/05 07:32:59;;;;;;;4.03;3.10;;;9.20;99.90;;;;;;5061789;28;21046;-76
2022/10/05 07:38:31;;;;;;;3.33;3.13;;;9.40;99.90;;;;;;5058414;28;20938;-78
2022/10/05 07:41:05;;;;;;;2.50;2.20;;;9.60;99.90;;;;;;5056626;28;20505;-79
2022/10/05 07:43:41;;;;;;;4.20;2.30;;;9.70;99.90;;;;;;5042191;28;20459;-79
2022/10/05 07:46:17;;;;;;;2.87;2.57;;;9.80;99.90;;;;;;5036583;28;20460;-80
2022/10/05 07:49:02;;;;;;;8.67;3.27;;;9.90;99.90;;;;;;5038336;28;20550;-80
2022/10/05 07:51:35;;;;;;;4.63;2.90;;;10.10;99.90;;;;;;5037540;28;20877;-79
2022/10/05 07:54:14;;;;;;;5.50;3.10;;;10.30;99.90;;;;;;5044320;28;20614;-79
2022/10/05 07:56:42;;;;;;;4.20;2.43;;;10.30;99.90;;;;;;5051373;28;20471;-78
2022/10/05 07:59:19;;;;;;;4.40;3.23;;;10.30;99.90;;;;;;5055092;28;20459;-77
2022/10/05 08:01:54;;;;;;;4.63;2.40;;;10.30;99.90;;;;;;5057581;28;21456;-78
2022/10/05 08:04:27;;;;;;;2.57;2.37;;;10.40;99.90;;;;;;5058751;28;20467;-78
2022/10/05 08:06:56;;;;;;;3.23;2.10;;;10.50;99.90;;;;;;5056297;28;20463;-78
2022/10/05 08:09:33;;;;;;;2.13;1.80;;;10.50;99.90;;;;;;5050514;28;20517;-75
2022/10/05 08:12:09;;;;;;;4.60;2.50;;;10.60;99.90;;;;;;5057821;28;21021;-75
2022/10/05 08:14:44;;;;;;;3.93;1.87;;;10.70;99.90;;;;;;5054358;28;20464;-75
2022/10/05 08:17:21;;;;;;;1.77;1.67;;;10.80;99.90;;;;;;5060220;28;20517;-75
2022/10/05 08:19:55;;;;;;;8.60;1.90;;;11.00;99.90;;;;;;5062168;28;21006;-75
2022/10/05 08:22:26;;;;;;;1.90;1.70;;;10.90;99.90;;;;;;5055653;28;20495;-75
2022/10/05 08:24:59;;;;;;;1.93;1.70;;;10.90;99.90;;;;;;5064804;28;20451;-75
2022/10/05 08:27:30;;;;;;;4.67;2.00;;;11.00;99.90;;;;;;5060575;28;20909;-75
2022/10/05 08:30:02;;;;;;;3.27;1.50;;;11.00;99.90;;;;;;5055444;28;20554;-78
2022/10/05 08:32:36;;;;;;;3.03;2.83;;;11.10;99.90;;;;;;5061496;28;20481;-78
2022/10/05 08:35:21;;;;;;;3.07;2.87;;;11.10;99.90;;;;;;5057898;28;20570;-77
2022/10/05 08:37:49;;;;;;;2.00;1.73;;;11.00;99.90;;;;;;5060153;28;20498;-77
2022/10/05 08:40:44;;;;;;;7.60;2.20;;;11.20;99.90;;;;;;5060743;28;20935;-77
2022/10/05 08:43:31;;;;;;;2.70;2.10;;;11.20;99.90;;;;;;5056535;28;20466;-77
2022/10/05 08:46:22;;;;;;;1.73;1.63;;;11.20;99.90;;;;;;5051057;28;20473;-78
2022/10/05 08:49:13;;;;;;;3.30;2.10;;;11.30;99.90;;;;;;5047822;28;20464;-76
2022/10/05 08:52:29;;;;;;;2.57;1.67;;;11.40;99.90;;;;;;5042359;28;20939;-78
2022/10/05 08:55:29;;;;;;;1.40;1.30;;;11.30;99.90;;;;;;5013389;28;20535;-78
2022/10/05 08:58:39;;;;;;;3.43;1.70;;;11.70;99.90;;;;;;5056249;28;20443;-77
2022/10/05 09:01:13;;;;;;;4.40;2.17;;;11.80;99.90;;;;;;5013370;28;20490;-77
2022/10/05 09:04:10;;;;;;;2.70;1.60;;;12.00;99.90;;;;;;5015154;28;20543;-77
2022/10/05 09:07:09;;;;;;;3.10;1.97;;;12.50;99.90;;;;;;5048407;28;20541;-77
2022/10/05 09:10:21;;;;;;;3.53;1.47;;;12.70;99.90;;;;;;5030743;28;20465;-79
2022/10/05 09:13:26;;;;;;;2.00;1.70;;;12.60;99.90;;;;;;5062173;28;20951;-76
2022/10/05 09:16:21;;;;;;;1.93;1.57;;;12.60;99.90;;;;;;5061952;28;20482;-76
2022/10/05 09:19:29;;;;;;;3.70;1.40;;;12.70;99.90;;;;;;5063183;28;20451;-76
2022/10/05 09:21:58;;;;;;;1.60;1.47;;;12.80;99.90;;;;;;5054760;28;20493;-75
2022/10/05 09:24:39;;;;;;;2.50;1.60;;;12.90;99.90;;;;;;5054903;28;20503;-76
2022/10/05 09:27:14;;;;;;;5.53;1.53;;;12.90;99.90;;;;;;5060351;28;20557;-76
2022/10/05 09:30:22;;;;;;;2.57;2.20;;;13.10;99.90;;;;;;5063271;28;20463;-78
2022/10/05 09:33:27;;;;;;;2.43;2.23;;;13.30;99.90;;;;;;5047540;28;20602;-78
2022/10/05 09:36:29;;;;;;;2.07;1.97;;;13.40;99.90;;;;;;5060011;28;21017;-78
2022/10/05 09:39:35;;;;;;;1.57;1.43;;;13.70;99.90;;;;;;5060639;28;20521;-78
2022/10/05 09:42:32;;;;;;;2.37;1.60;;;13.60;99.90;;;;;;5049433;28;20459;-78
2022/10/05 09:45:44;;;;;;;3.13;1.90;;;13.30;99.90;;;;;;5053434;28;20500;-78
2022/10/05 09:48:52;;;;;;;3.37;1.83;;;13.40;99.90;;;;;;5037191;28;20489;-78
2022/10/05 09:51:51;;;;;;;1.77;1.20;;;13.60;99.90;;;;;;5051787;28;20499;-78
2022/10/05 09:54:43;;;;;;;1.60;1.50;;;13.70;99.90;;;;;;5050209;28;20547;-78
2022/10/05 09:57:58;;;;;;;1.90;1.63;;;14.00;99.90;;;;;;5057922;28;20524;-76
2022/10/05 10:00:34;;;;;;;5.23;1.70;;;14.20;99.90;;;;;;4993242;28;20473;-77
2022/10/05 10:03:24;;;;;;;3.50;2.50;;;14.20;99.90;;;;;;5051601;28;20477;-77
2022/10/05 10:06:11;;;;;;;2.37;1.60;;;14.20;99.90;;;;;;5055635;28;20446;-76
2022/10/05 10:09:01;;;;;;;1.97;1.00;;;14.40;99.90;;;;;;5059807;28;20514;-76
2022/10/05 10:11:41;;;;;;;5.40;2.20;;;14.60;99.90;;;;;;5049439;28;20515;-76
2022/10/05 10:14:47;;;;;;;2.03;1.40;;;14.60;99.90;;;;;;5058353;28;20570;-76
2022/10/05 10:17:32;;;;;;;1.60;1.30;;;14.30;99.90;;;;;;5057406;28;20544;-76
2022/10/05 10:20:17;;;;;;;2.43;1.53;;;14.60;99.90;;;;;;5059207;28;20462;-76
2022/10/05 10:23:08;;;;;;;3.60;1.70;;;14.40;99.90;;;;;;5059673;28;20539;-76
2022/10/05 10:26:13;;;;;;;2.23;1.27;;;14.50;99.90;;;;;;5060063;28;20466;-77
2022/10/05 10:29:15;;;;;;;1.50;1.20;;;14.60;99.90;;;;;;4998191;28;20992;-76
2022/10/05 10:32:06;;;;;;;3.43;1.30;;;14.70;99.90;;;;;;5050937;28;20516;-77
2022/10/05 10:35:09;;;;;;;1.70;1.33;;;14.90;99.90;;;;;;5059028;28;20626;-76
2022/10/05 10:37:41;;;;;;;3.30;2.10;;;14.70;99.90;;;;;;5058106;28;20470;-77
2022/10/05 10:40:28;;;;;;;1.37;1.27;;;14.70;99.90;;;;;;5065301;28;20475;-76
2022/10/05 10:43:28;;;;;;;1.53;1.40;;;14.90;99.90;;;;;;5068824;28;20465;-76
2022/10/05 10:46:06;;;;;;;2.23;1.40;;;15.30;99.90;;;;;;5053187;28;20493;-76
2022/10/05 10:49:00;;;;;;;6.77;2.60;;;15.30;99.90;;;;;;5049552;28;20491;-76
2022/10/05 10:52:01;;;;;;;1.87;1.33;;;15.60;99.90;;;;;;5059442;28;20461;-76
2022/10/05 10:55:08;;;;;;;3.47;1.77;;;15.40;99.90;;;;;;5058238;28;20522;-76
2022/10/05 10:57:51;;;;;;;2.20;1.10;;;15.80;99.90;;;;;;5057524;28;21121;-76
2022/10/05 11:00:43;;;;;;;3.13;1.40;;;15.70;99.90;;;;;;5058491;28;20569;-78
2022/10/05 11:03:37;;;;;;;1.50;1.20;;;15.60;99.90;;;;;;5053942;28;20856;-77
2022/10/05 11:06:33;;;;;;;1.23;1.13;;;15.90;99.90;;;;;;5054333;28;20500;-78
2022/10/05 11:09:21;;;;;;;4.40;1.50;;;16.00;99.90;;;;;;5055494;28;20538;-75
2022/10/05 11:12:40;;;;;;;2.17;1.30;;;16.00;99.90;;;;;;5063164;28;20534;-77
2022/10/05 11:15:46;;;;;;;3.03;1.50;;;15.60;99.90;;;;;;5073623;28;20535;-77
2022/10/05 11:18:24;;;;;;;1.63;1.53;;;15.90;99.90;;;;;;5063993;28;20608;-77
2022/10/05 11:21:17;;;;;;;2.10;1.20;;;16.10;99.90;;;;;;5058107;28;20527;-78
2022/10/05 11:24:37;;;;;;;1.43;1.30;;;16.20;99.90;;;;;;5059651;28;20544;-75
2022/10/05 11:27:49;;;;;;;1.00;0.90;;;16.30;99.90;;;;;;5058197;28;20524;-75
2022/10/05 11:31:00;;;;;;;3.10;0.93;;;16.10;99.90;;;;;;5049538;28;20469;-75
2022/10/05 11:34:00;;;;;;;2.10;0.90;;;16.00;99.90;;;;;;5038340;28;20491;-75
2022/10/05 11:36:59;;;;;;;1.37;1.00;;;16.00;99.90;;;;;;5047556;28;20477;-75
2022/10/05 11:39:37;;;;;;;2.20;1.13;;;16.30;99.90;;;;;;5051955;28;20494;-75
2022/10/05 11:42:48;;;;;;;1.77;1.03;;;16.30;99.90;;;;;;5051916;28;20468;-75
2022/10/05 11:45:26;;;;;;;0.90;0.80;;;16.60;99.90;;;;;;5049116;28;20459;-75
2022/10/05 11:48:33;;;;;;;1.30;1.20;;;16.80;99.90;;;;;;5054714;28;20485;-75
2022/10/05 11:51:37;;;;;;;1.77;1.37;;;16.50;99.90;;;;;;5057155;28;20548;-75
2022/10/05 11:54:19;;;;;;;1.10;1.00;;;16.80;99.90;;;;;;5057803;28;20515;-76
2022/10/05 11:56:51;;;;;;;2.03;0.80;;;17.00;99.90;;;;;;5058026;28;20506;-78
2022/10/05 11:59:25;;;;;;;1.57;1.00;;;17.20;99.90;;;;;;5056320;28;20548;-78
2022/10/05 12:02:00;;;;;;;1.20;0.90;;;17.50;99.90;;;;;;5057467;28;20468;-78
2022/10/05 12:04:37;;;;;;;3.57;1.17;;;17.40;99.90;;;;;;5057195;28;20992;-78
2022/10/05 12:07:14;;;;;;;2.70;1.20;;;17.50;99.90;;;;;;5047778;28;20529;-78
2022/10/05 12:10:16;;;;;;;2.80;0.90;;;17.80;99.90;;;;;;5055428;28;20495;-78
2022/10/05 12:12:53;;;;;;;3.50;1.20;;;18.10;99.90;;;;;;5052869;28;20454;-78
2022/10/05 12:15:26;;;;;;;1.17;1.07;;;17.80;99.90;;;;;;5048988;28;20511;-78
2022/10/05 12:18:00;;;;;;;1.37;0.90;;;17.80;99.90;;;;;;5056107;28;20520;-78
2022/10/05 12:20:34;;;;;;;1.93;1.13;;;18.10;99.90;;;;;;5061088;28;20487;-78
2022/10/05 12:23:10;;;;;;;1.33;1.10;;;18.20;99.90;;;;;;5056481;28;20459;-78
2022/10/05 12:25:42;;;;;;;1.20;0.87;;;18.30;99.90;;;;;;5058305;28;20487;-78
2022/10/05 12:28:13;;;;;;;1.67;1.20;;;18.30;99.90;;;;;;5059562;28;20517;-78
2022/10/05 12:31:03;;;;;;;1.17;1.00;;;17.90;99.90;;;;;;5058025;28;20456;-78
2022/10/05 12:33:34;;;;;;;1.67;1.10;;;17.90;99.90;;;;;;5051363;28;20515;-78
2022/10/05 12:36:06;;;;;;;2.20;1.63;;;18.20;99.90;;;;;;5064295;28;20793;-78
2022/10/05 12:38:41;;;;;;;0.80;0.80;;;17.80;99.90;;;;;;5055492;28;20498;-78
2022/10/05 12:41:16;;;;;;;2.20;1.67;;;17.90;99.90;;;;;;5064461;28;20458;-78
2022/10/05 12:43:55;;;;;;;1.10;1.00;;;18.10;99.90;;;;;;5064469;28;20487;-78
2022/10/05 12:46:28;;;;;;;1.30;1.10;;;18.10;99.90;;;;;;5058002;28;20544;-78
2022/10/05 12:49:23;;;;;;;2.80;1.90;;;18.00;99.90;;;;;;5063330;28;20470;-77
2022/10/05 12:51:57;;;;;;;1.47;1.17;;;18.20;99.90;;;;;;5056312;28;20447;-78
2022/10/05 12:54:37;;;;;;;4.40;1.37;;;18.30;99.90;;;;;;5056885;28;20573;-78
2022/10/05 12:57:12;;;;;;;2.03;1.23;;;18.30;99.90;;;;;;5058161;28;20458;-78
2022/10/05 12:59:44;;;;;;;1.40;1.23;;;18.30;99.90;;;;;;5061925;28;20462;-78
2022/10/05 13:02:22;;;;;;;8.77;2.10;;;18.10;99.90;;;;;;5050826;28;20469;-78
2022/10/05 13:04:54;;;;;;;1.73;1.63;;;18.10;99.90;;;;;;5063042;28;20445;-78
2022/10/05 13:07:49;;;;;;;2.40;1.20;;;18.00;99.90;;;;;;5056919;28;20464;-78
2022/10/05 13:10:33;;;;;;;4.70;1.13;;;17.90;99.90;;;;;;5062990;28;21011;-78
2022/10/05 13:13:19;;;;;;;4.53;1.30;;;17.80;99.90;;;;;;5064137;28;20448;-79
2022/10/05 13:15:53;;;;;;;2.07;1.60;;;18.00;99.90;;;;;;5058785;28;20494;-78
2022/10/05 13:18:28;;;;;;;4.27;2.03;;;17.80;99.90;;;;;;5063941;28;20447;-78
2022/10/05 13:21:03;;;;;;;3.47;1.30;;;18.00;99.90;;;;;;5070534;28;20441;-79
2022/10/05 13:23:39;;;;;;;5.40;1.63;;;18.30;99.90;;;;;;5065997;28;20472;-78
2022/10/05 13:26:12;;;;;;;2.83;1.10;;;18.40;99.90;;;;;;5056541;28;20486;-79
2022/10/05 13:28:44;;;;;;;1.53;1.03;;;18.40;99.90;;;;;;5061307;28;20517;-79
2022/10/05 13:31:16;;;;;;;3.63;1.30;;;18.30;99.90;;;;;;5062656;28;20455;-78
2022/10/05 13:34:05;;;;;;;10.97;1.30;;;18.20;99.90;;;;;;5063250;28;20487;-78
2022/10/05 13:36:44;;;;;;;4.10;1.70;;;18.10;99.90;;;;;;5058445;28;20464;-79
2022/10/05 13:39:32;;;;;;;4.83;1.37;;;18.20;99.90;;;;;;5063780;28;20455;-78
2022/10/05 13:42:09;;;;;;;1.43;1.00;;;18.20;99.90;;;;;;5061936;28;20505;-79
2022/10/05 13:44:46;;;;;;;1.90;1.40;;;17.90;99.90;;;;;;5058580;28;20510;-78
2022/10/05 13:47:25;;;;;;;3.43;1.50;;;17.90;99.90;;;;;;5061712;28;20512;-79
2022/10/05 13:49:58;;;;;;;2.37;1.70;;;17.70;99.90;;;;;;5059560;28;20487;-79
2022/10/05 13:52:33;;;;;;;1.30;1.07;;;17.60;99.90;;;;;;5059324;28;20568;-78
2022/10/05 13:55:06;;;;;;;1.33;1.03;;;17.70;99.90;;;;;;5063203;28;20583;-78
2022/10/05 13:57:52;;;;;;;1.70;1.07;;;17.70;99.90;;;;;;5058429;28;20951;-78
2022/10/05 14:00:22;;;;;;;1.93;1.30;;;17.30;99.90;;;;;;5063798;28;20463;-78
2022/10/05 14:02:51;;;;;;;2.13;1.33;;;17.20;99.90;;;;;;5061079;28;20580;-78